sensor_id;sensor_type;location;lat;lon;timestamp;pressure;altitude;pressure_sealevel;temperature;humidity
28312;BME280;15572;48.810;9.148;2024-01-06T00:04:40;96916.13;;;4.69;100.00
28312;BME280;15572;48.810;9.148;2024-01-06T00:09:37;96926.66;;;4.71;100.00
28312;BME280;15572;48.810;9.148;2024-01-06T00:14:34;96920.84;;;4.67;100.00
28312;BME280;15572;48.810;9.148;2024-01-06T00:19:31;96919.00;;;4.68;100.00
28312;BME280;15572;48.810;9.148;2024-01-06T00:24:27;96926.97;;;4.61;100.00
28312;BME280;15572;48.810;9.148;2024-01-06T00:29:23;96926.97;;;4.61;100.00
28312;BME280;15572;48.810;9.148;2024-01-06T00:34:21;96929.47;;;4.62;100.00
28312;BME280;15572;48.810;9.148;2024-01-06T00:39:17;96929.28;;;4.64;100.00
28312;BME280;15572;48.810;9.148;2024-01-06T00:44:14;96925.56;;;4.65;100.00
28312;BME280;15572;48.810;9.148;2024-01-06T00:49:11;96938.53;;;4.61;100.00
28312;BME280;15572;48.810;9.148;2024-01-06T00:54:09;96941.75;;;4.57;100.00
28312;BME280;15572;48.810;9.148;2024-01-06T00:59:05;96941.59;;;4.58;100.00
28312;BME280;15572;48.810;9.148;2024-01-06T01:04:02;96950.06;;;4.62;100.00
28312;BME280;15572;48.810;9.148;2024-01-06T01:08:58;96956.28;;;4.62;100.00
28312;BME280;15572;48.810;9.148;2024-01-06T01:13:56;96954.78;;;4.60;100.00
28312;BME280;15572;48.810;9.148;2024-01-06T01:18:52;96964.50;;;4.61;100.00
28312;BME280;15572;48.810;9.148;2024-01-06T01:23:49;96960.78;;;4.62;100.00
28312;BME280;15572;48.810;9.148;2024-01-06T01:28:45;96969.00;;;4.60;100.00
28312;BME280;15572;48.810;9.148;2024-01-06T01:33:43;96969.22;;;4.59;100.00
28312;BME280;15572;48.810;9.148;2024-01-06T01:38:39;96969.41;;;4.57;100.00
28312;BME280;15572;48.810;9.148;2024-01-06T01:43:36;96980.97;;;4.58;100.00
28312;BME280;15572;48.810;9.148;2024-01-06T01:48:33;96986.13;;;4.59;100.00
28312;BME280;15572;48.810;9.148;2024-01-06T01:53:31;96980.56;;;4.61;100.00
28312;BME280;15572;48.810;9.148;2024-01-06T01:58:28;96989.84;;;4.58;100.00
28312;BME280;15572;48.810;9.148;2024-01-06T02:03:25;96989.19;;;4.56;100.00
28312;BME280;15572;48.810;9.148;2024-01-06T02:08:23;96988.75;;;4.53;100.00
28312;BME280;15572;48.810;9.148;2024-01-06T02:13:21;96996.13;;;4.51;100.00
28312;BME280;15572;48.810;9.148;2024-01-06T02:18:17;97001.94;;;4.54;100.00
28312;BME280;15572;48.810;9.148;2024-01-06T02:23:15;97006.09;;;4.57;100.00
28312;BME280;15572;48.810;9.148;2024-01-06T02:28:11;97011.84;;;4.54;100.00
28312;BME280;15572;48.810;9.148;2024-01-06T02:33:08;97018.50;;;4.58;100.00
28312;BME280;15572;48.810;9.148;2024-01-06T02:38:04;97022.84;;;4.59;100.00
28312;BME280;15572;48.810;9.148;2024-01-06T02:43:02;97016.91;;;4.63;100.00
28312;BME280;15572;48.810;9.148;2024-01-06T02:47:59;97016.06;;;4.63;100.00
28312;BME280;15572;48.810;9.148;2024-01-06T02:52:55;97019.59;;;4.63;100.00
28312;BME280;15572;48.810;9.148;2024-01-06T02:57:52;97015.69;;;4.66;100.00
28312;BME280;15572;48.810;9.148;2024-01-06T03:02:49;97027.25;;;4.66;100.00
28312;BME280;15572;48.810;9.148;2024-01-06T03:07:46;97026.81;;;4.63;100.00
28312;BME280;15572;48.810;9.148;2024-01-06T03:12:48;97020.97;;;4.59;100.00
28312;BME280;15572;48.810;9.148;2024-01-06T03:17:44;97026.31;;;4.59;100.00
28312;BME280;15572;48.810;9.148;2024-01-06T03:22:42;97030.22;;;4.57;100.00
28312;BME280;15572;48.810;9.148;2024-01-06T03:27:38;97025.25;;;4.54;100.00
28312;BME280;15572;48.810;9.148;2024-01-06T03:32:35;97026.44;;;4.51;100.00
28312;BME280;15572;48.810;9.148;2024-01-06T03:37:32;97017.56;;;4.51;100.00
28312;BME280;15572;48.810;9.148;2024-01-06T03:42:30;97016.72;;;4.50;100.00
28312;BME280;15572;48.810;9.148;2024-01-06T03:47:26;97022.09;;;4.50;100.00
28312;BME280;15572;48.810;9.148;2024-01-06T03:52:22;97020.41;;;4.49;100.00
28312;BME280;15572;48.810;9.148;2024-01-06T03:57:19;97022.66;;;4.46;100.00
28312;BME280;15572;48.810;9.148;2024-01-06T04:02:17;97023.88;;;4.43;100.00
28312;BME280;15572;48.810;9.148;2024-01-06T04:07:13;97026.06;;;4.40;100.00
28312;BME280;15572;48.810;9.148;2024-01-06T04:12:09;97026.47;;;4.37;100.00
28312;BME280;15572;48.810;9.148;2024-01-06T04:17:06;97033.84;;;4.35;100.00
28312;BME280;15572;48.810;9.148;2024-01-06T04:22:04;97034.41;;;4.30;100.00
28312;BME280;15572;48.810;9.148;2024-01-06T04:27:00;97031.72;;;4.30;100.00
28312;BME280;15572;48.810;9.148;2024-01-06T04:31:57;97043.28;;;4.31;100.00
28312;BME280;15572;48.810;9.148;2024-01-06T04:36:53;97044.94;;;4.32;100.00
28312;BME280;15572;48.810;9.148;2024-01-06T04:41:51;97041.03;;;4.34;100.00
28312;BME280;15572;48.810;9.148;2024-01-06T04:46:47;97037.91;;;4.31;100.00
28312;BME280;15572;48.810;9.148;2024-01-06T04:51:44;97045.56;;;4.34;100.00
28312;BME280;15572;48.810;9.148;2024-01-06T04:56:40;97042.25;;;4.32;100.00
28312;BME280;15572;48.810;9.148;2024-01-06T05:01:38;97054.81;;;4.31;100.00
28312;BME280;15572;48.810;9.148;2024-01-06T05:06:34;97062.38;;;4.28;100.00
28312;BME280;15572;48.810;9.148;2024-01-06T05:11:31;97064.03;;;4.29;100.00
28312;BME280;15572;48.810;9.148;2024-01-06T05:16:27;97067.22;;;4.32;100.00
28312;BME280;15572;48.810;9.148;2024-01-06T05:21:25;97069.06;;;4.32;100.00
28312;BME280;15572;48.810;9.148;2024-01-06T05:26:22;97070.25;;;4.29;100.00
28312;BME280;15572;48.810;9.148;2024-01-06T05:31:19;97080.31;;;4.27;100.00
28312;BME280;15572;48.810;9.148;2024-01-06T05:36:18;97083.81;;;4.28;100.00
28312;BME280;15572;48.810;9.148;2024-01-06T05:41:16;97088.53;;;4.26;100.00
28312;BME280;15572;48.810;9.148;2024-01-06T05:46:20;97090.56;;;4.23;100.00
28312;BME280;15572;48.810;9.148;2024-01-06T05:51:17;97095.09;;;4.23;100.00
28312;BME280;15572;48.810;9.148;2024-01-06T05:56:23;97098.31;;;4.18;100.00
28312;BME280;15572;48.810;9.148;2024-01-06T06:01:20;97102.00;;;4.17;100.00
28312;BME280;15572;48.810;9.148;2024-01-06T06:06:17;97121.41;;;4.19;100.00
28312;BME280;15572;48.810;9.148;2024-01-06T06:11:14;97133.81;;;4.20;100.00
28312;BME280;15572;48.810;9.148;2024-01-06T06:16:12;97134.25;;;4.24;100.00
28312;BME280;15572;48.810;9.148;2024-01-06T06:21:08;97143.78;;;4.27;100.00
28312;BME280;15572;48.810;9.148;2024-01-06T06:26:05;97139.06;;;4.29;100.00
28312;BME280;15572;48.810;9.148;2024-01-06T06:31:02;97142.75;;;4.28;100.00
28312;BME280;15572;48.810;9.148;2024-01-06T06:36:00;97146.47;;;4.27;100.00
28312;BME280;15572;48.810;9.148;2024-01-06T06:40:56;97153.47;;;4.28;100.00
28312;BME280;15572;48.810;9.148;2024-01-06T06:45:53;97161.63;;;4.34;100.00
28312;BME280;15572;48.810;9.148;2024-01-06T06:50:50;97157.47;;;4.32;100.00
28312;BME280;15572;48.810;9.148;2024-01-06T06:55:49;97170.22;;;4.30;100.00
28312;BME280;15572;48.810;9.148;2024-01-06T07:00:45;97173.44;;;4.25;100.00
28312;BME280;15572;48.810;9.148;2024-01-06T07:05:42;97175.47;;;4.23;100.00
28312;BME280;15572;48.810;9.148;2024-01-06T07:10:38;97183.78;;;4.28;100.00
28312;BME280;15572;48.810;9.148;2024-01-06T07:15:36;97184.72;;;4.35;100.00
28312;BME280;15572;48.810;9.148;2024-01-06T07:20:32;97195.00;;;4.46;100.00
28312;BME280;15572;48.810;9.148;2024-01-06T07:25:29;97189.22;;;4.57;100.00
28312;BME280;15572;48.810;9.148;2024-01-06T07:30:26;97194.31;;;4.67;100.00
28312;BME280;15572;48.810;9.148;2024-01-06T07:35:24;97194.75;;;4.71;100.00
28312;BME280;15572;48.810;9.148;2024-01-06T07:40:20;97205.75;;;4.76;100.00
28312;BME280;15572;48.810;9.148;2024-01-06T07:45:18;97206.59;;;4.76;100.00
28312;BME280;15572;48.810;9.148;2024-01-06T07:50:15;97205.59;;;4.77;100.00
28312;BME280;15572;48.810;9.148;2024-01-06T07:55:12;97204.97;;;4.75;100.00
28312;BME280;15572;48.810;9.148;2024-01-06T08:00:10;97202.44;;;4.74;100.00
28312;BME280;15572;48.810;9.148;2024-01-06T08:05:09;97199.75;;;4.74;100.00
28312;BME280;15572;48.810;9.148;2024-01-06T08:10:06;97211.13;;;4.76;100.00
28312;BME280;15572;48.810;9.148;2024-01-06T08:15:06;97213.28;;;4.80;100.00
28312;BME280;15572;48.810;9.148;2024-01-06T08:20:04;97213.34;;;4.87;100.00
28312;BME280;15572;48.810;9.148;2024-01-06T08:25:01;97213.19;;;4.88;100.00
28312;BME280;15572;48.810;9.148;2024-01-06T08:29:57;97219.28;;;4.97;100.00
28312;BME280;15572;48.810;9.148;2024-01-06T08:34:55;97227.97;;;4.99;100.00
28312;BME280;15572;48.810;9.148;2024-01-06T08:39:52;97234.00;;;5.01;100.00
28312;BME280;15572;48.810;9.148;2024-01-06T08:44:48;97229.75;;;5.06;100.00
28312;BME280;15572;48.810;9.148;2024-01-06T08:49:44;97235.28;;;5.05;100.00
28312;BME280;15572;48.810;9.148;2024-01-06T08:54:42;97225.66;;;5.11;100.00
28312;BME280;15572;48.810;9.148;2024-01-06T08:59:39;97238.34;;;5.17;100.00
28312;BME280;15572;48.810;9.148;2024-01-06T09:04:36;97241.13;;;5.23;100.00
28312;BME280;15572;48.810;9.148;2024-01-06T09:09:32;97253.72;;;5.23;100.00
28312;BME280;15572;48.810;9.148;2024-01-06T09:14:30;97253.59;;;5.31;100.00
28312;BME280;15572;48.810;9.148;2024-01-06T09:19:26;97263.59;;;5.37;100.00
28312;BME280;15572;48.810;9.148;2024-01-06T09:24:23;97259.06;;;5.37;100.00
28312;BME280;15572;48.810;9.148;2024-01-06T09:29:19;97261.94;;;5.36;100.00
28312;BME280;15572;48.810;9.148;2024-01-06T09:34:17;97274.78;;;5.40;100.00
28312;BME280;15572;48.810;9.148;2024-01-06T09:39:14;97279.06;;;5.49;100.00
28312;BME280;15572;48.810;9.148;2024-01-06T09:44:10;97275.31;;;5.50;100.00
28312;BME280;15572;48.810;9.148;2024-01-06T09:49:08;97294.41;;;5.41;100.00
28312;BME280;15572;48.810;9.148;2024-01-06T09:54:09;97303.13;;;5.28;100.00
28312;BME280;15572;48.810;9.148;2024-01-06T09:59:05;97290.81;;;5.34;100.00
28312;BME280;15572;48.810;9.148;2024-01-06T10:04:02;97292.72;;;5.40;100.00
28312;BME280;15572;48.810;9.148;2024-01-06T10:08:58;97293.97;;;5.37;100.00
28312;BME280;15572;48.810;9.148;2024-01-06T10:13:56;97294.63;;;5.39;100.00
28312;BME280;15572;48.810;9.148;2024-01-06T10:18:53;97288.66;;;5.29;100.00
28312;BME280;15572;48.810;9.148;2024-01-06T10:23:49;97295.97;;;5.35;100.00
28312;BME280;15572;48.810;9.148;2024-01-06T10:28:48;97298.38;;;5.30;100.00
28312;BME280;15572;48.810;9.148;2024-01-06T10:33:45;97293.78;;;5.39;100.00
28312;BME280;15572;48.810;9.148;2024-01-06T10:38:42;97294.41;;;5.41;100.00
28312;BME280;15572;48.810;9.148;2024-01-06T10:43:41;97290.44;;;5.37;100.00
28312;BME280;15572;48.810;9.148;2024-01-06T10:48:39;97300.63;;;5.27;100.00
28312;BME280;15572;48.810;9.148;2024-01-06T10:53:39;97296.09;;;5.27;100.00
28312;BME280;15572;48.810;9.148;2024-01-06T10:58:36;97291.28;;;5.23;100.00
28312;BME280;15572;48.810;9.148;2024-01-06T11:03:38;97292.84;;;5.17;100.00
28312;BME280;15572;48.810;9.148;2024-01-06T11:08:38;97297.56;;;5.15;100.00
28312;BME280;15572;48.810;9.148;2024-01-06T11:13:45;97295.72;;;5.16;100.00
28312;BME280;15572;48.810;9.148;2024-01-06T11:18:43;97292.56;;;5.27;100.00
28312;BME280;15572;48.810;9.148;2024-01-06T11:23:40;97297.47;;;5.23;100.00
28312;BME280;15572;48.810;9.148;2024-01-06T11:28:44;97291.63;;;5.20;100.00
28312;BME280;15572;48.810;9.148;2024-01-06T11:33:42;97283.84;;;5.25;100.00
28312;BME280;15572;48.810;9.148;2024-01-06T11:38:39;97282.38;;;5.37;100.00
28312;BME280;15572;48.810;9.148;2024-01-06T11:43:37;97272.59;;;5.44;100.00
28312;BME280;15572;48.810;9.148;2024-01-06T11:48:36;97275.00;;;5.39;100.00
28312;BME280;15572;48.810;9.148;2024-01-06T11:53:34;97261.75;;;5.37;100.00
28312;BME280;15572;48.810;9.148;2024-01-06T11:58:31;97261.19;;;5.42;100.00
28312;BME280;15572;48.810;9.148;2024-01-06T12:03:28;97261.56;;;5.39;100.00
28312;BME280;15572;48.810;9.148;2024-01-06T12:08:25;97264.25;;;5.39;100.00
28312;BME280;15572;48.810;9.148;2024-01-06T12:13:24;97254.63;;;5.30;100.00
28312;BME280;15572;48.810;9.148;2024-01-06T12:18:22;97258.13;;;5.30;100.00
28312;BME280;15572;48.810;9.148;2024-01-06T12:23:26;97262.09;;;5.34;100.00
28312;BME280;15572;48.810;9.148;2024-01-06T12:28:24;97259.53;;;5.26;100.00
28312;BME280;15572;48.810;9.148;2024-01-06T12:33:23;97247.03;;;5.19;100.00
28312;BME280;15572;48.810;9.148;2024-01-06T12:38:19;97254.44;;;5.17;100.00
28312;BME280;15572;48.810;9.148;2024-01-06T12:43:16;97249.53;;;5.20;100.00
28312;BME280;15572;48.810;9.148;2024-01-06T12:48:13;97255.75;;;5.21;100.00
28312;BME280;15572;48.810;9.148;2024-01-06T12:53:10;97243.44;;;5.26;100.00
28312;BME280;15572;48.810;9.148;2024-01-06T12:58:07;97245.72;;;5.29;100.00
28312;BME280;15572;48.810;9.148;2024-01-06T13:03:04;97250.47;;;5.27;100.00
28312;BME280;15572;48.810;9.148;2024-01-06T13:08:02;97251.75;;;5.17;100.00
28312;BME280;15572;48.810;9.148;2024-01-06T13:13:00;97256.38;;;5.08;100.00
28312;BME280;15572;48.810;9.148;2024-01-06T13:17:56;97253.91;;;5.06;100.00
28312;BME280;15572;48.810;9.148;2024-01-06T13:22:53;97264.69;;;4.98;100.00
28312;BME280;15572;48.810;9.148;2024-01-06T13:27:51;97266.75;;;4.96;100.00
28312;BME280;15572;48.810;9.148;2024-01-06T13:32:47;97269.22;;;4.98;100.00
28312;BME280;15572;48.810;9.148;2024-01-06T13:37:45;97271.91;;;4.98;100.00
28312;BME280;15572;48.810;9.148;2024-01-06T13:42:43;97278.38;;;5.03;100.00
28312;BME280;15572;48.810;9.148;2024-01-06T13:47:41;97288.09;;;5.04;100.00
28312;BME280;15572;48.810;9.148;2024-01-06T13:52:40;97288.84;;;4.98;100.00
28312;BME280;15572;48.810;9.148;2024-01-06T13:57:36;97293.84;;;5.01;100.00
28312;BME280;15572;48.810;9.148;2024-01-06T14:02:37;97299.41;;;5.00;100.00
28312;BME280;15572;48.810;9.148;2024-01-06T14:07:35;97296.59;;;4.93;100.00
28312;BME280;15572;48.810;9.148;2024-01-06T14:12:33;97300.50;;;4.91;100.00
28312;BME280;15572;48.810;9.148;2024-01-06T14:17:30;97302.91;;;4.86;100.00
28312;BME280;15572;48.810;9.148;2024-01-06T14:22:26;97303.53;;;4.88;100.00
28312;BME280;15572;48.810;9.148;2024-01-06T14:27:24;97313.63;;;4.86;100.00
28312;BME280;15572;48.810;9.148;2024-01-06T14:32:24;97316.31;;;4.86;100.00
28312;BME280;15572;48.810;9.148;2024-01-06T14:37:20;97318.16;;;4.85;100.00
28312;BME280;15572;48.810;9.148;2024-01-06T14:42:16;97325.91;;;4.80;100.00
28312;BME280;15572;48.810;9.148;2024-01-06T14:47:15;97324.41;;;4.78;100.00
28312;BME280;15572;48.810;9.148;2024-01-06T14:52:12;97334.97;;;4.79;100.00
28312;BME280;15572;48.810;9.148;2024-01-06T14:57:08;97334.28;;;4.77;100.00
28312;BME280;15572;48.810;9.148;2024-01-06T15:02:05;97342.47;;;4.84;100.00
28312;BME280;15572;48.810;9.148;2024-01-06T15:07:04;97353.06;;;4.77;100.00
28312;BME280;15572;48.810;9.148;2024-01-06T15:12:00;97348.72;;;4.76;100.00
28312;BME280;15572;48.810;9.148;2024-01-06T15:16:56;97352.44;;;4.75;100.00
28312;BME280;15572;48.810;9.148;2024-01-06T15:21:54;97356.97;;;4.75;100.00
28312;BME280;15572;48.810;9.148;2024-01-06T15:26:52;97361.00;;;4.71;100.00
28312;BME280;15572;48.810;9.148;2024-01-06T15:31:48;97363.38;;;4.65;100.00
28312;BME280;15572;48.810;9.148;2024-01-06T15:36:46;97367.56;;;4.68;100.00
28312;BME280;15572;48.810;9.148;2024-01-06T15:41:43;97373.25;;;4.65;100.00
28312;BME280;15572;48.810;9.148;2024-01-06T15:46:40;97371.91;;;4.69;100.00
28312;BME280;15572;48.810;9.148;2024-01-06T15:51:37;97376.59;;;4.67;100.00
28312;BME280;15572;48.810;9.148;2024-01-06T15:56:33;97369.13;;;4.62;100.00
28312;BME280;15572;48.810;9.148;2024-01-06T16:01:29;97374.09;;;4.65;100.00
28312;BME280;15572;48.810;9.148;2024-01-06T16:06:27;97369.94;;;4.63;100.00
28312;BME280;15572;48.810;9.148;2024-01-06T16:11:24;97371.13;;;4.60;100.00
28312;BME280;15572;48.810;9.148;2024-01-06T16:16:20;97369.94;;;4.63;100.00
28312;BME280;15572;48.810;9.148;2024-01-06T16:21:21;97375.78;;;4.66;100.00
28312;BME280;15572;48.810;9.148;2024-01-06T16:26:19;97375.31;;;4.63;100.00
28312;BME280;15572;48.810;9.148;2024-01-06T16:31:15;97378.31;;;4.60;100.00
28312;BME280;15572;48.810;9.148;2024-01-06T16:36:13;97375.00;;;4.58;100.00
28312;BME280;15572;48.810;9.148;2024-01-06T16:41:09;97385.06;;;4.56;100.00
28312;BME280;15572;48.810;9.148;2024-01-06T16:46:07;97390.81;;;4.53;100.00
28312;BME280;15572;48.810;9.148;2024-01-06T16:51:04;97390.59;;;4.54;100.00
28312;BME280;15572;48.810;9.148;2024-01-06T16:56:02;97387.75;;;4.56;100.00
28312;BME280;15572;48.810;9.148;2024-01-06T17:00:59;97397.09;;;4.60;100.00
28312;BME280;15572;48.810;9.148;2024-01-06T17:05:57;97400.81;;;4.59;100.00
28312;BME280;15572;48.810;9.148;2024-01-06T17:10:53;97398.63;;;4.54;100.00
28312;BME280;15572;48.810;9.148;2024-01-06T17:15:50;97404.84;;;4.55;100.00
28312;BME280;15572;48.810;9.148;2024-01-06T17:20:47;97410.03;;;4.56;100.00
28312;BME280;15572;48.810;9.148;2024-01-06T17:25:45;97410.19;;;4.55;100.00
28312;BME280;15572;48.810;9.148;2024-01-06T17:30:41;97407.72;;;4.53;100.00
28312;BME280;15572;48.810;9.148;2024-01-06T17:35:38;97419.91;;;4.56;100.00
28312;BME280;15572;48.810;9.148;2024-01-06T17:40:35;97430.47;;;4.57;100.00
28312;BME280;15572;48.810;9.148;2024-01-06T17:45:32;97424.44;;;4.55;100.00
28312;BME280;15572;48.810;9.148;2024-01-06T17:50:29;97430.47;;;4.57;100.00
28312;BME280;15572;48.810;9.148;2024-01-06T17:55:25;97435.66;;;4.59;100.00
28312;BME280;15572;48.810;9.148;2024-01-06T18:00:23;97440.00;;;4.60;100.00
28312;BME280;15572;48.810;9.148;2024-01-06T18:05:20;97427.63;;;4.59;100.00
28312;BME280;15572;48.810;9.148;2024-01-06T18:10:17;97438.81;;;4.62;100.00
28312;BME280;15572;48.810;9.148;2024-01-06T18:15:13;97437.63;;;4.65;100.00
28312;BME280;15572;48.810;9.148;2024-01-06T18:20:11;97437.81;;;4.63;100.00
28312;BME280;15572;48.810;9.148;2024-01-06T18:25:10;97447.03;;;4.61;100.00
28312;BME280;15572;48.810;9.148;2024-01-06T18:30:08;97447.03;;;4.61;100.00
28312;BME280;15572;48.810;9.148;2024-01-06T18:35:05;97442.38;;;4.55;100.00
28312;BME280;15572;48.810;9.148;2024-01-06T18:40:03;97444.03;;;4.56;100.00
28312;BME280;15572;48.810;9.148;2024-01-06T18:45:01;97456.28;;;4.58;100.00
28312;BME280;15572;48.810;9.148;2024-01-06T18:49:58;97452.38;;;4.61;100.00
28312;BME280;15572;48.810;9.148;2024-01-06T18:54:55;97455.75;;;4.63;100.00
28312;BME280;15572;48.810;9.148;2024-01-06T18:59:51;97461.94;;;4.63;100.00
28312;BME280;15572;48.810;9.148;2024-01-06T19:04:49;97447.69;;;4.63;100.00
28312;BME280;15572;48.810;9.148;2024-01-06T19:09:45;97453.34;;;4.68;100.00
28312;BME280;15572;48.810;9.148;2024-01-06T19:14:42;97449.31;;;4.72;100.00
28312;BME280;15572;48.810;9.148;2024-01-06T19:19:40;97449.00;;;4.67;100.00
28312;BME280;15572;48.810;9.148;2024-01-06T19:24:39;97451.69;;;4.67;100.00
28312;BME280;15572;48.810;9.148;2024-01-06T19:29:36;97451.69;;;4.67;100.00
28312;BME280;15572;48.810;9.148;2024-01-06T19:34:37;97450.84;;;4.66;100.00
28312;BME280;15572;48.810;9.148;2024-01-06T19:39:33;97449.19;;;4.65;100.00
28312;BME280;15572;48.810;9.148;2024-01-06T19:44:31;97449.72;;;4.61;100.00
28312;BME280;15572;48.810;9.148;2024-01-06T19:49:27;97453.75;;;4.57;100.00
28312;BME280;15572;48.810;9.148;2024-01-06T19:54:24;97455.44;;;4.58;100.00
28312;BME280;15572;48.810;9.148;2024-01-06T19:59:20;97449.25;;;4.57;100.00
28312;BME280;15572;48.810;9.148;2024-01-06T20:04:18;97455.25;;;4.59;100.00
28312;BME280;15572;48.810;9.148;2024-01-06T20:09:15;97458.13;;;4.58;100.00
28312;BME280;15572;48.810;9.148;2024-01-06T20:14:11;97460.97;;;4.56;100.00
28312;BME280;15572;48.810;9.148;2024-01-06T20:19:07;97456.28;;;4.58;100.00
28312;BME280;15572;48.810;9.148;2024-01-06T20:24:05;97457.13;;;4.59;100.00
28312;BME280;15572;48.810;9.148;2024-01-06T20:29:02;97451.56;;;4.60;100.00
28312;BME280;15572;48.810;9.148;2024-01-06T20:33:59;97458.13;;;4.58;100.00
28312;BME280;15572;48.810;9.148;2024-01-06T20:38:55;97453.41;;;4.60;100.00
28312;BME280;15572;48.810;9.148;2024-01-06T20:43:53;97460.25;;;4.62;100.00
28312;BME280;15572;48.810;9.148;2024-01-06T20:48:49;97455.06;;;4.61;100.00
28312;BME280;15572;48.810;9.148;2024-01-06T20:53:47;97449.53;;;4.62;100.00
28312;BME280;15572;48.810;9.148;2024-01-06T20:58:44;97449.38;;;4.64;100.00
28312;BME280;15572;48.810;9.148;2024-01-06T21:03:42;97444.00;;;4.64;100.00
28312;BME280;15572;48.810;9.148;2024-01-06T21:08:38;97449.53;;;4.62;100.00
28312;BME280;15572;48.810;9.148;2024-01-06T21:13:35;97447.88;;;4.61;100.00
28312;BME280;15572;48.810;9.148;2024-01-06T21:18:31;97445.84;;;4.63;100.00
28312;BME280;15572;48.810;9.148;2024-01-06T21:23:29;97441.31;;;4.64;100.00
28312;BME280;15572;48.810;9.148;2024-01-06T21:28:25;97436.13;;;4.62;100.00
28312;BME280;15572;48.810;9.148;2024-01-06T21:33:22;97441.84;;;4.59;100.00
28312;BME280;15572;48.810;9.148;2024-01-06T21:38:18;97446.56;;;4.57;100.00
28312;BME280;15572;48.810;9.148;2024-01-06T21:43:16;97447.41;;;4.58;100.00
28312;BME280;15572;48.810;9.148;2024-01-06T21:48:14;97447.72;;;4.55;100.00
28312;BME280;15572;48.810;9.148;2024-01-06T21:53:11;97454.47;;;4.51;100.00
28312;BME280;15572;48.810;9.148;2024-01-06T21:58:07;97448.09;;;4.52;100.00
28312;BME280;15572;48.810;9.148;2024-01-06T22:03:05;97455.97;;;4.53;100.00
28312;BME280;15572;48.810;9.148;2024-01-06T22:08:01;97464.84;;;4.54;100.00
28312;BME280;15572;48.810;9.148;2024-01-06T22:12:58;97461.34;;;4.53;100.00
28312;BME280;15572;48.810;9.148;2024-01-06T22:17:54;97465.50;;;4.56;100.00
28312;BME280;15572;48.810;9.148;2024-01-06T22:22:52;97470.84;;;4.56;100.00
28312;BME280;15572;48.810;9.148;2024-01-06T22:27:48;97480.94;;;4.54;100.00
28312;BME280;15572;48.810;9.148;2024-01-06T22:32:45;97475.38;;;4.55;100.00
28312;BME280;15572;48.810;9.148;2024-01-06T22:37:42;97475.56;;;4.54;100.00
28312;BME280;15572;48.810;9.148;2024-01-06T22:42:41;97475.38;;;4.55;100.00
28312;BME280;15572;48.810;9.148;2024-01-06T22:47:38;97476.91;;;4.50;100.00
28312;BME280;15572;48.810;9.148;2024-01-06T22:52:34;97482.09;;;4.51;100.00
28312;BME280;15572;48.810;9.148;2024-01-06T22:57:31;97478.75;;;4.49;100.00
28312;BME280;15572;48.810;9.148;2024-01-06T23:02:29;97473.41;;;4.49;100.00
28312;BME280;15572;48.810;9.148;2024-01-06T23:07:25;97479.59;;;4.50;100.00
28312;BME280;15572;48.810;9.148;2024-01-06T23:12:23;97480.97;;;4.46;100.00
28312;BME280;15572;48.810;9.148;2024-01-06T23:17:19;97485.47;;;4.45;100.00
28312;BME280;15572;48.810;9.148;2024-01-06T23:22:17;97490.69;;;4.47;100.00
28312;BME280;15572;48.810;9.148;2024-01-06T23:27:13;97496.03;;;4.47;100.00
28312;BME280;15572;48.810;9.148;2024-01-06T23:32:10;97503.06;;;4.48;100.00
28312;BME280;15572;48.810;9.148;2024-01-06T23:37:06;97502.03;;;4.49;100.00
28312;BME280;15572;48.810;9.148;2024-01-06T23:42:07;97498.34;;;4.50;100.00
28312;BME280;15572;48.810;9.148;2024-01-06T23:47:04;97496.81;;;4.55;100.00
28312;BME280;15572;48.810;9.148;2024-01-06T23:52:00;97501.72;;;4.52;100.00
28312;BME280;15572;48.810;9.148;2024-01-06T23:56:57;97496.69;;;4.49;100.00
